Time;durP1;ratioP1;P1;durP2;ratioP2;P2;SDS_P1;SDS_P2;PMS_P1;PMS_P2;Temp;Humidity;BMP_temperature;BMP_pressure;BME280_temperature;BME280_humidity;BME280_pressure;Samples;Min_cycle;Max_cycle;Signal;HPM_P1;HPM_P2
2021/06/12 00:01:11;;;;;;;7.95;5.03;;;22.40;99.90;;;;;;5015938;28;20116;-71
2021/06/12 00:03:37;;;;;;;7.60;5.32;;;22.30;99.90;;;;;;5018182;28;20060;-70
2021/06/12 00:06:06;;;;;;;6.88;6.05;;;22.20;99.90;;;;;;5019057;28;20454;-71
2021/06/12 00:08:32;;;;;;;9.93;6.53;;;22.20;99.90;;;;;;5017766;28;20037;-70
2021/06/12 00:11:00;;;;;;;7.70;5.53;;;22.20;99.90;;;;;;5018191;28;20497;-72
2021/06/12 00:13:26;;;;;;;8.18;7.18;;;22.10;99.90;;;;;;5017616;28;20022;-74
2021/06/12 00:15:51;;;;;;;7.70;5.60;;;22.10;99.90;;;;;;5022719;28;20037;-76
2021/06/12 00:18:17;;;;;;;9.90;5.82;;;22.10;99.90;;;;;;5019132;28;20034;-76
2021/06/12 00:20:43;;;;;;;8.95;5.47;;;22.10;99.90;;;;;;5018573;28;20028;-77
2021/06/12 00:23:09;;;;;;;8.00;6.10;;;22.00;99.90;;;;;;5015077;28;20501;-76
2021/06/12 00:25:37;;;;;;;8.23;5.78;;;21.90;99.90;;;;;;5013896;28;20223;-77
2021/06/12 00:28:03;;;;;;;8.50;5.53;;;21.90;99.90;;;;;;5017111;28;20504;-76
2021/06/12 00:30:30;;;;;;;6.32;5.43;;;21.90;99.90;;;;;;5017886;28;20058;-74
2021/06/12 00:32:55;;;;;;;6.95;5.47;;;21.90;99.90;;;;;;5017999;28;20112;-77
2021/06/12 00:35:22;;;;;;;7.15;5.82;;;21.80;99.90;;;;;;5015574;28;20148;-76
2021/06/12 00:37:48;;;;;;;6.28;5.65;;;21.80;99.90;;;;;;5018051;28;20029;-77
2021/06/12 00:40:15;;;;;;;6.78;5.20;;;21.80;99.90;;;;;;5016659;28;20025;-76
2021/06/12 00:42:41;;;;;;;10.27;5.38;;;21.80;99.90;;;;;;5014443;28;20608;-74
2021/06/12 00:45:13;;;;;;;11.45;6.00;;;21.80;99.90;;;;;;5020643;28;20469;-77
2021/06/12 00:47:40;;;;;;;;;;;21.70;99.90;;;;;;5018570;28;20033;-77
2021/06/12 00:50:08;;;;;;;7.50;5.38;;;21.70;99.90;;;;;;5016837;28;19913;-74
2021/06/12 00:52:33;;;;;;;6.95;4.07;;;21.80;99.90;;;;;;5016311;28;20382;-75
2021/06/12 00:54:59;;;;;;;6.93;4.95;;;21.80;99.90;;;;;;5019158;28;20029;-75
2021/06/12 00:57:25;;;;;;;6.05;4.82;;;21.70;99.90;;;;;;5018373;28;20106;-77
2021/06/12 00:59:52;;;;;;;8.07;5.55;;;21.70;99.90;;;;;;5018438;28;20030;-77
2021/06/12 01:02:17;;;;;;;8.13;5.32;;;21.70;99.90;;;;;;5018861;28;20026;-77
2021/06/12 01:04:43;;;;;;;6.18;4.30;;;21.70;99.90;;;;;;5019578;28;20060;-77
2021/06/12 01:07:09;;;;;;;5.18;4.68;;;21.70;99.90;;;;;;5015379;28;20033;-76
2021/06/12 01:09:34;;;;;;;6.78;4.50;;;21.70;99.90;;;;;;5015704;28;20038;-77
2021/06/12 01:12:19;;;;;;;8.77;5.45;;;21.60;99.90;;;;;;5020140;28;20033;-77
2021/06/12 01:14:51;;;;;;;8.40;5.43;;;21.60;99.90;;;;;;5015317;28;20077;-74
2021/06/12 01:17:34;;;;;;;8.83;6.03;;;21.50;99.90;;;;;;5022587;28;20014;-77
2021/06/12 01:20:06;;;;;;;6.55;5.25;;;21.50;99.90;;;;;;5012925;28;20053;-76
2021/06/12 01:22:47;;;;;;;8.55;6.25;;;21.50;99.90;;;;;;5020597;28;20183;-75
2021/06/12 01:25:21;;;;;;;8.40;5.72;;;21.50;99.90;;;;;;5015299;28;20101;-76
2021/06/12 01:28:05;;;;;;;9.75;5.45;;;21.40;99.90;;;;;;5014848;28;20065;-77
2021/06/12 01:30:32;;;;;;;7.78;5.82;;;21.40;99.90;;;;;;5017609;28;20033;-76
2021/06/12 01:33:05;;;;;;;10.68;6.70;;;21.40;99.90;;;;;;5022596;28;20030;-76
2021/06/12 01:35:49;;;;;;;;;;;21.40;99.90;;;;;;5016368;28;20018;-77
2021/06/12 01:38:19;;;;;;;10.30;5.60;;;21.30;99.90;;;;;;5017326;28;19913;-74
2021/06/12 01:40:46;;;;;;;10.95;7.18;;;21.40;99.90;;;;;;5019552;28;20030;-76
2021/06/12 01:43:15;;;;;;;14.98;6.43;;;21.30;99.90;;;;;;5021609;28;20078;-77
2021/06/12 01:45:42;;;;;;;10.27;5.90;;;21.30;99.90;;;;;;5019122;28;20037;-75
2021/06/12 01:48:10;;;;;;;7.57;6.50;;;21.30;99.90;;;;;;5020653;28;20120;-75
2021/06/12 01:50:36;;;;;;;8.57;5.75;;;21.20;99.90;;;;;;5016752;28;20025;-77
2021/06/12 01:53:03;;;;;;;10.98;6.22;;;21.20;99.90;;;;;;5017670;28;20079;-77
2021/06/12 01:55:31;;;;;;;7.63;5.95;;;21.10;99.90;;;;;;5018165;28;20021;-77
2021/06/12 01:57:59;;;;;;;12.57;7.68;;;21.10;99.90;;;;;;5018331;28;20042;-75
2021/06/12 02:00:25;;;;;;;8.05;5.78;;;21.10;99.90;;;;;;5021973;28;20064;-76
2021/06/12 02:02:50;;;;;;;9.95;6.43;;;21.10;99.90;;;;;;5015771;28;20057;-74
2021/06/12 02:05:22;;;;;;;11.20;6.32;;;21.00;99.90;;;;;;5016033;28;20026;-75
2021/06/12 02:07:49;;;;;;;7.68;6.18;;;21.00;99.90;;;;;;5023049;28;20048;-77
2021/06/12 02:10:21;;;;;;;10.13;5.47;;;21.00;99.90;;;;;;5018244;28;20034;-75
2021/06/12 02:12:49;;;;;;;5.40;4.90;;;21.00;99.90;;;;;;5017674;28;20029;-77
2021/06/12 02:15:15;;;;;;;11.48;5.93;;;20.90;99.90;;;;;;5016433;28;20100;-75
2021/06/12 02:17:41;;;;;;;11.00;6.10;;;20.90;99.90;;;;;;5019695;28;20025;-74
2021/06/12 02:20:09;;;;;;;7.32;5.95;;;20.90;99.90;;;;;;5017516;28;20497;-74
2021/06/12 02:22:42;;;;;;;8.85;5.60;;;20.90;99.90;;;;;;5021647;28;20029;-77
2021/06/12 02:25:10;;;;;;;9.55;6.30;;;20.80;99.90;;;;;;5014694;28;20057;-76
2021/06/12 02:27:39;;;;;;;11.07;6.25;;;20.80;99.90;;;;;;5016046;28;20092;-75
2021/06/12 02:30:06;;;;;;;13.18;6.45;;;20.80;99.90;;;;;;5016906;28;20093;-71
2021/06/12 02:32:36;;;;;;;9.80;6.28;;;20.80;99.90;;;;;;5015517;28;20501;-72
2021/06/12 02:35:05;;;;;;;9.20;6.05;;;20.70;99.90;;;;;;5016955;28;20064;-73
2021/06/12 02:37:31;;;;;;;10.02;6.38;;;20.70;99.90;;;;;;5015620;28;20030;-75
2021/06/12 02:39:56;;;;;;;9.52;6.47;;;20.70;99.90;;;;;;5017790;28;20040;-77
2021/06/12 02:42:22;;;;;;;11.95;7.05;;;20.70;99.90;;;;;;5016627;28;20041;-74
2021/06/12 02:44:47;;;;;;;8.80;6.80;;;20.70;99.90;;;;;;5015517;28;20374;-71
2021/06/12 02:47:15;;;;;;;15.75;7.20;;;20.70;99.90;;;;;;5016077;28;20030;-70
2021/06/12 02:49:42;;;;;;;11.15;6.07;;;20.70;99.90;;;;;;5016643;28;20095;-71
2021/06/12 02:52:14;;;;;;;11.13;7.20;;;20.70;99.90;;;;;;5016557;28;20026;-71
2021/06/12 02:54:41;;;;;;;12.02;6.70;;;20.60;99.90;;;;;;5016193;28;20018;-72
2021/06/12 02:57:08;;;;;;;16.33;7.40;;;20.60;99.90;;;;;;5019228;28;20030;-71
2021/06/12 02:59:35;;;;;;;14.18;7.40;;;20.60;99.90;;;;;;5014876;28;20478;-71
2021/06/12 03:02:02;;;;;;;12.50;6.72;;;20.60;99.90;;;;;;5019425;28;20030;-72
2021/06/12 03:04:29;;;;;;;9.90;7.13;;;20.60;99.90;;;;;;5020895;28;20018;-71
2021/06/12 03:06:57;;;;;;;15.15;6.93;;;20.60;99.90;;;;;;5017608;28;20038;-71
2021/06/12 03:09:25;;;;;;;10.57;5.38;;;20.60;99.90;;;;;;5013715;28;20022;-71
2021/06/12 03:11:54;;;;;;;6.47;5.65;;;20.60;99.90;;;;;;5020920;28;20124;-71
2021/06/12 03:14:21;;;;;;;11.35;7.22;;;20.60;99.90;;;;;;5019039;28;20127;-71
2021/06/12 03:16:47;;;;;;;8.98;7.35;;;20.60;99.90;;;;;;5019787;28;20025;-70
2021/06/12 03:19:15;;;;;;;10.00;7.15;;;20.60;99.90;;;;;;5017768;28;20022;-70
2021/06/12 03:21:42;;;;;;;15.13;8.02;;;20.60;99.90;;;;;;5022340;28;20497;-72
2021/06/12 03:24:09;;;;;;;13.57;7.10;;;20.60;99.90;;;;;;5020384;28;20061;-71
2021/06/12 03:26:35;;;;;;;11.23;7.80;;;20.60;99.90;;;;;;5018156;28;20505;-71
2021/06/12 03:29:05;;;;;;;13.25;6.95;;;20.60;99.90;;;;;;5015356;28;20431;-71
2021/06/12 03:31:31;;;;;;;15.13;7.78;;;20.60;99.90;;;;;;5023366;28;20029;-70
2021/06/12 03:33:57;;;;;;;9.73;7.35;;;20.50;99.90;;;;;;5018494;28;20040;-71
2021/06/12 03:36:26;;;;;;;9.98;6.75;;;20.40;99.90;;;;;;5022342;28;20124;-71
2021/06/12 03:38:53;;;;;;;11.57;7.40;;;20.40;99.90;;;;;;5019740;28;20100;-71
2021/06/12 03:41:19;;;;;;;13.55;7.72;;;20.50;99.90;;;;;;5022273;28;20097;-72
2021/06/12 03:43:47;;;;;;;13.18;7.18;;;20.40;99.90;;;;;;5021522;28;20112;-71
2021/06/12 03:46:14;;;;;;;10.00;7.45;;;20.40;99.90;;;;;;5018885;28;20036;-71
2021/06/12 03:48:43;;;;;;;9.88;6.30;;;20.30;99.90;;;;;;5016351;28;20014;-71
2021/06/12 03:51:11;;;;;;;11.05;7.57;;;20.40;99.90;;;;;;5019348;28;20026;-71
2021/06/12 03:53:49;;;;;;;13.02;7.07;;;20.40;99.90;;;;;;5018922;28;20424;-70
2021/06/12 03:56:20;;;;;;;14.85;7.40;;;20.40;99.90;;;;;;5021283;28;20030;-70
2021/06/12 03:58:47;;;;;;;9.85;7.57;;;20.40;99.90;;;;;;5020666;28;20022;-71
2021/06/12 04:01:15;;;;;;;11.52;7.32;;;20.40;99.90;;;;;;5020043;28;20053;-70
2021/06/12 04:03:42;;;;;;;9.65;7.65;;;20.30;99.90;;;;;;5020084;28;20097;-70
2021/06/12 04:06:08;;;;;;;13.82;7.60;;;20.30;99.90;;;;;;5015210;28;20563;-71
2021/06/12 04:08:34;;;;;;;11.30;7.18;;;20.30;99.90;;;;;;5019363;28;20469;-71
2021/06/12 04:10:59;;;;;;;14.88;7.55;;;20.30;99.90;;;;;;5017367;28;20030;-72
2021/06/12 04:13:26;;;;;;;12.48;7.47;;;20.30;99.90;;;;;;5022572;28;20599;-71
2021/06/12 04:15:52;;;;;;;10.10;6.65;;;20.40;99.90;;;;;;5016074;28;20046;-71
2021/06/12 04:18:18;;;;;;;12.38;7.55;;;20.30;99.90;;;;;;5013625;28;20014;-72
2021/06/12 04:20:43;;;;;;;12.38;7.15;;;20.30;99.90;;;;;;5018622;28;20139;-72
2021/06/12 04:23:09;;;;;;;12.35;7.05;;;20.30;99.90;;;;;;5016101;28;20458;-74
2021/06/12 04:25:36;;;;;;;9.00;5.85;;;20.30;99.90;;;;;;5015523;28;20058;-73
2021/06/12 04:28:02;;;;;;;6.97;5.85;;;20.30;99.90;;;;;;5021084;28;20029;-76
2021/06/12 04:30:28;;;;;;;8.02;6.53;;;20.40;99.90;;;;;;5020938;28;20083;-75
2021/06/12 04:32:53;;;;;;;9.13;6.47;;;20.40;99.90;;;;;;5016782;28;20034;-72
2021/06/12 04:35:19;;;;;;;9.65;6.30;;;20.40;99.90;;;;;;5022523;28;20532;-72
2021/06/12 04:37:45;;;;;;;12.25;7.15;;;20.40;99.90;;;;;;5018657;28;20316;-71
2021/06/12 04:40:13;;;;;;;11.65;7.63;;;20.40;99.90;;;;;;5015489;28;20034;-71
2021/06/12 04:42:38;;;;;;;12.73;7.57;;;20.40;99.90;;;;;;5022691;28;20025;-73
2021/06/12 04:45:08;;;;;;;13.82;7.70;;;20.40;99.90;;;;;;5017458;28;20034;-75
2021/06/12 04:47:34;;;;;;;12.05;7.90;;;20.30;99.90;;;;;;5019724;28;20034;-71
2021/06/12 04:50:00;;;;;;;15.68;7.60;;;20.30;99.90;;;;;;5019514;28;20026;-71
2021/06/12 04:52:26;;;;;;;11.52;7.57;;;20.40;99.90;;;;;;5014092;28;20216;-73
2021/06/12 04:54:52;;;;;;;15.05;7.90;;;20.40;99.90;;;;;;5019773;28;20100;-76
2021/06/12 04:57:19;;;;;;;14.52;8.55;;;20.50;99.90;;;;;;5015042;28;20025;-76
2021/06/12 04:59:44;;;;;;;12.60;8.48;;;20.50;99.90;;;;;;5018264;28;20022;-75
2021/06/12 05:02:10;;;;;;;15.98;8.82;;;20.50;99.90;;;;;;5017084;28;20494;-75
2021/06/12 05:04:36;;;;;;;13.95;8.93;;;20.40;99.90;;;;;;5020544;28;20101;-75
2021/06/12 05:07:01;;;;;;;13.73;8.68;;;20.40;99.90;;;;;;5018828;28;20022;-75
2021/06/12 05:09:27;;;;;;;14.70;8.80;;;20.40;99.90;;;;;;5020149;28;20037;-77
2021/06/12 05:11:53;;;;;;;13.88;9.50;;;20.50;99.90;;;;;;5017017;28;20467;-75
2021/06/12 05:14:19;;;;;;;15.93;10.23;;;20.50;99.90;;;;;;5014921;28;20030;-74
2021/06/12 05:16:45;;;;;;;19.55;10.27;;;20.50;99.90;;;;;;5022499;28;20502;-77
2021/06/12 05:19:11;;;;;;;17.27;9.95;;;20.40;99.90;;;;;;5018252;28;20030;-78
2021/06/12 05:21:39;;;;;;;17.85;11.20;;;20.40;99.90;;;;;;5015742;28;20457;-76
2021/06/12 05:24:06;;;;;;;16.38;10.10;;;20.40;99.90;;;;;;5020908;28;20462;-77
2021/06/12 05:26:31;;;;;;;17.00;11.65;;;20.50;99.90;;;;;;5014910;28;20018;-77
2021/06/12 05:28:57;;;;;;;17.20;10.75;;;20.50;99.90;;;;;;5015912;28;20533;-77
2021/06/12 05:31:23;;;;;;;20.45;12.80;;;20.50;99.90;;;;;;5018650;28;20022;-75
2021/06/12 05:33:49;;;;;;;19.45;12.82;;;20.60;99.90;;;;;;5015443;28;20080;-78
2021/06/12 05:36:15;;;;;;;24.23;13.05;;;20.50;99.90;;;;;;5017850;28;20080;-71
2021/06/12 05:38:40;;;;;;;22.33;13.15;;;20.50;99.90;;;;;;5016196;28;20109;-76
2021/06/12 05:41:06;;;;;;;22.30;14.93;;;20.60;99.90;;;;;;5014214;28;20029;-78
2021/06/12 05:43:32;;;;;;;26.73;17.20;;;20.60;99.90;;;;;;5012386;28;20068;-76
2021/06/12 05:45:57;;;;;;;26.77;16.83;;;20.50;99.90;;;;;;5015824;28;20017;-76
2021/06/12 05:48:26;;;;;;;25.48;16.63;;;20.40;99.90;;;;;;5018629;28;20033;-77
2021/06/12 05:50:52;;;;;;;22.63;15.85;;;20.40;99.90;;;;;;5015730;28;20459;-75
2021/06/12 05:53:18;;;;;;;27.27;17.08;;;20.50;99.90;;;;;;5017443;28;20034;-77
2021/06/12 05:55:44;;;;;;;24.00;16.25;;;20.50;99.90;;;;;;5018849;28;20026;-78
2021/06/12 05:58:11;;;;;;;21.63;16.27;;;20.60;99.90;;;;;;5016241;28;20056;-77
2021/06/12 06:00:37;;;;;;;22.75;15.02;;;20.70;99.90;;;;;;5015484;28;20115;-78
2021/06/12 06:03:03;;;;;;;24.95;16.85;;;20.70;99.90;;;;;;5019288;28;20077;-79
2021/06/12 06:05:28;;;;;;;33.67;23.75;;;20.70;99.90;;;;;;5016057;28;20109;-80
2021/06/12 06:07:54;;;;;;;30.02;23.10;;;20.70;99.90;;;;;;5016073;28;20116;-72
2021/06/12 06:10:20;;;;;;;32.72;23.80;;;20.70;99.90;;;;;;5017162;28;20083;-78
2021/06/12 06:12:46;;;;;;;39.70;28.27;;;20.60;99.90;;;;;;5018863;28;20029;-71
2021/06/12 06:15:13;;;;;;;35.47;26.95;;;20.40;99.90;;;;;;5001271;28;20025;-75
2021/06/12 06:17:40;;;;;;;45.83;29.55;;;20.30;99.90;;;;;;5015163;28;20407;-76
2021/06/12 06:20:07;;;;;;;37.90;25.88;;;20.30;99.90;;;;;;5007864;28;20337;-70
2021/06/12 06:22:33;;;;;;;45.38;30.15;;;20.40;99.90;;;;;;5009231;28;20037;-78
2021/06/12 06:24:58;;;;;;;40.92;29.55;;;20.30;99.90;;;;;;5011778;28;20026;-77
2021/06/12 06:27:24;;;;;;;42.78;30.08;;;20.30;99.90;;;;;;5017666;28;20041;-77
2021/06/12 06:29:49;;;;;;;43.67;31.33;;;20.40;99.90;;;;;;5018768;28;20108;-79
2021/06/12 06:32:15;;;;;;;46.83;31.65;;;20.40;99.90;;;;;;5012701;28;20033;-79
2021/06/12 06:34:41;;;;;;;40.15;29.63;;;20.40;99.90;;;;;;5014325;28;20021;-77
2021/06/12 06:37:06;;;;;;;45.85;31.60;;;20.50;99.90;;;;;;5018506;28;20137;-78
2021/06/12 06:39:32;;;;;;;43.17;30.15;;;20.40;99.90;;;;;;5013360;28;20022;-76
2021/06/12 06:41:58;;;;;;;49.20;33.22;;;20.30;99.90;;;;;;5016279;28;20475;-79
2021/06/12 06:44:24;;;;;;;46.70;32.85;;;20.20;99.90;;;;;;5020060;28;20021;-79
2021/06/12 06:46:50;;;;;;;46.05;31.98;;;20.20;99.90;;;;;;5011670;28;20069;-74
2021/06/12 06:49:15;;;;;;;52.25;34.67;;;20.20;99.90;;;;;;5015863;28;20058;-75
2021/06/12 06:51:41;;;;;;;48.35;32.95;;;20.20;99.90;;;;;;5019521;28;20029;-69
2021/06/12 06:54:07;;;;;;;52.80;35.72;;;20.10;99.90;;;;;;5019870;28;20462;-73
2021/06/12 06:56:32;;;;;;;57.83;36.80;;;20.10;99.90;;;;;;5018340;28;20030;-72
2021/06/12 06:58:58;;;;;;;52.03;36.70;;;20.20;99.90;;;;;;5017178;28;20066;-72
2021/06/12 07:01:24;;;;;;;51.72;36.90;;;20.20;99.90;;;;;;5026610;28;20112;-70
2021/06/12 07:03:49;;;;;;;52.63;36.13;;;20.20;99.90;;;;;;5016508;28;20451;-69
2021/06/12 07:06:15;;;;;;;59.53;37.30;;;20.40;99.90;;;;;;5017511;28;20427;-70
2021/06/12 07:08:40;;;;;;;56.70;37.60;;;20.30;99.90;;;;;;5017704;28;20048;-70
2021/06/12 07:11:07;;;;;;;57.17;38.33;;;20.30;99.90;;;;;;5019565;28;20026;-78
2021/06/12 07:13:34;;;;;;;54.78;36.65;;;20.40;99.90;;;;;;5016551;28;20484;-78
2021/06/12 07:16:00;;;;;;;50.63;38.60;;;20.50;99.90;;;;;;5019249;28;20391;-79
2021/06/12 07:18:25;;;;;;;52.80;35.70;;;20.50;99.90;;;;;;5019963;28;20022;-77
2021/06/12 07:20:51;;;;;;;49.67;35.35;;;20.40;99.90;;;;;;5019331;28;20026;-70
2021/06/12 07:23:17;;;;;;;54.50;36.13;;;20.40;99.90;;;;;;5018805;28;20021;-70
2021/06/12 07:25:47;;;;;;;51.03;35.38;;;20.40;99.90;;;;;;5019500;28;20034;-70
2021/06/12 07:28:14;;;;;;;59.72;36.35;;;20.40;99.90;;;;;;5025019;28;20038;-69
2021/06/12 07:30:41;;;;;;;54.58;35.50;;;20.40;99.90;;;;;;5018264;28;20101;-70
2021/06/12 07:33:11;;;;;;;53.95;34.47;;;20.40;99.90;;;;;;5023654;28;20026;-71
2021/06/12 07:35:37;;;;;;;51.65;34.38;;;20.50;99.90;;;;;;5015841;28;20052;-70
2021/06/12 07:38:03;;;;;;;52.50;33.65;;;20.50;99.90;;;;;;5018892;28;20517;-69
2021/06/12 07:40:29;;;;;;;48.10;33.58;;;20.50;99.90;;;;;;5016618;28;20033;-70
2021/06/12 07:42:55;;;;;;;58.03;36.40;;;20.50;99.90;;;;;;5018319;28;20026;-70
2021/06/12 07:45:21;;;;;;;50.08;33.78;;;20.50;99.90;;;;;;5018115;28;20032;-70
2021/06/12 07:47:47;;;;;;;55.70;34.88;;;20.70;99.90;;;;;;5021339;28;20395;-70
2021/06/12 07:50:13;;;;;;;53.10;35.83;;;20.70;99.90;;;;;;5021265;28;20030;-69
2021/06/12 07:52:39;;;;;;;56.58;37.40;;;20.80;99.90;;;;;;5020163;28;20112;-70
2021/06/12 07:55:06;;;;;;;57.38;36.03;;;20.90;99.90;;;;;;5020544;28;20641;-71
2021/06/12 07:57:31;;;;;;;55.00;35.25;;;20.90;99.90;;;;;;5020511;28;20026;-70
2021/06/12 07:59:57;;;;;;;57.70;37.75;;;21.00;99.90;;;;;;5015719;28;20175;-70
2021/06/12 08:02:23;;;;;;;61.58;38.28;;;21.10;99.90;;;;;;5019229;28;20021;-69
2021/06/12 08:04:48;;;;;;;54.20;34.85;;;21.10;99.90;;;;;;5021347;28;20030;-71
2021/06/12 08:07:15;;;;;;;56.53;35.63;;;21.20;99.90;;;;;;5019183;28;20543;-70
2021/06/12 08:09:41;;;;;;;54.50;36.05;;;21.30;99.90;;;;;;5018833;28;20018;-70
2021/06/12 08:12:07;;;;;;;53.40;37.65;;;21.40;99.90;;;;;;5015425;28;20391;-69
2021/06/12 08:14:33;;;;;;;50.88;35.55;;;21.50;99.90;;;;;;5014399;28;20502;-70
2021/06/12 08:16:59;;;;;;;50.95;35.08;;;21.50;99.90;;;;;;5015408;28;20029;-69
2021/06/12 08:19:24;;;;;;;53.97;36.42;;;21.50;99.90;;;;;;5018585;28;20034;-70
2021/06/12 08:21:50;;;;;;;51.58;36.05;;;21.50;99.90;;;;;;5015529;28;20029;-71
2021/06/12 08:24:16;;;;;;;48.40;34.80;;;21.50;99.90;;;;;;5017174;28;20088;-70
2021/06/12 08:26:41;;;;;;;51.38;36.70;;;21.60;99.90;;;;;;5022632;28;20037;-70
2021/06/12 08:29:08;;;;;;;52.47;36.42;;;21.60;99.90;;;;;;5017464;28;20040;-70
2021/06/12 08:31:34;;;;;;;46.88;35.17;;;21.70;99.90;;;;;;5017297;28;20034;-71
2021/06/12 08:34:01;;;;;;;51.10;35.00;;;21.60;99.90;;;;;;5018833;28;20497;-71
2021/06/12 08:36:26;;;;;;;53.33;35.55;;;21.60;99.90;;;;;;5017053;28;20040;-70
2021/06/12 08:38:52;;;;;;;52.17;37.33;;;21.50;99.90;;;;;;5018751;28;20070;-70
2021/06/12 08:41:18;;;;;;;51.42;36.55;;;21.60;99.90;;;;;;5020148;28;20045;-71
2021/06/12 08:43:44;;;;;;;49.33;36.55;;;21.70;99.90;;;;;;5015981;28;20458;-70
2021/06/12 08:46:11;;;;;;;52.28;37.35;;;21.80;99.90;;;;;;5015983;28;20144;-69
2021/06/12 08:48:38;;;;;;;61.63;35.70;;;21.80;99.90;;;;;;5016832;28;20545;-70
2021/06/12 08:51:04;;;;;;;59.97;37.85;;;21.80;99.90;;;;;;5018027;28;20033;-75
2021/06/12 08:53:32;;;;;;;50.13;37.60;;;21.80;99.90;;;;;;5019479;28;20125;-75
2021/06/12 08:55:58;;;;;;;53.95;39.50;;;21.80;99.90;;;;;;5015032;28;20079;-78
2021/06/12 08:58:24;;;;;;;49.97;37.25;;;21.80;99.90;;;;;;5019411;28;20096;-78
2021/06/12 09:00:50;;;;;;;47.25;35.22;;;21.80;99.90;;;;;;5020758;28;20463;-77
2021/06/12 09:03:22;;;;;;;55.92;39.45;;;21.70;99.90;;;;;;5026700;28;20093;-75
2021/06/12 09:06:01;;;;;;;51.38;36.95;;;21.70;99.90;;;;;;5018809;28;20152;-76
2021/06/12 09:08:29;;;;;;;48.65;35.88;;;21.80;99.90;;;;;;5021190;28;20084;-77
2021/06/12 09:11:11;;;;;;;54.83;39.05;;;21.90;99.90;;;;;;5017350;28;20125;-77
2021/06/12 09:13:44;;;;;;;56.05;40.10;;;21.90;99.90;;;;;;5019093;28;20109;-77
2021/06/12 09:16:35;;;;;;;50.92;36.53;;;22.00;99.90;;;;;;5015024;28;20448;-78
2021/06/12 09:19:07;;;;;;;54.85;38.30;;;22.00;99.90;;;;;;5019663;28;20101;-77
2021/06/12 09:21:47;;;;;;;49.03;35.60;;;22.10;99.90;;;;;;5015312;28;20359;-72
2021/06/12 09:24:37;;;;;;;49.05;37.63;;;22.10;99.90;;;;;;5020363;28;20022;-77
2021/06/12 09:27:03;;;;;;;47.97;35.78;;;22.20;99.90;;;;;;5017647;28;20064;-78
2021/06/12 09:29:38;;;;;;;56.55;41.03;;;22.30;99.90;;;;;;5015157;28;20034;-78
2021/06/12 09:32:24;;;;;;;49.58;38.22;;;22.40;99.90;;;;;;5018137;28;20030;-76
2021/06/12 09:34:52;;;;;;;46.90;35.90;;;22.50;99.90;;;;;;5018244;28;20030;-78
2021/06/12 09:37:21;;;;;;;46.13;35.63;;;22.60;99.90;;;;;;5015382;28;20033;-74
2021/06/12 09:39:59;;;;;;;67.10;37.38;;;22.60;99.90;;;;;;5017037;28;20026;-77
2021/06/12 09:42:46;;;;;;;56.97;36.17;;;22.50;99.90;;;;;;5017412;28;20180;-78
2021/06/12 09:45:13;;;;;;;43.78;35.60;;;22.40;99.90;;;;;;5017258;28;20030;-79
2021/06/12 09:47:39;;;;;;;48.72;38.63;;;22.30;99.90;;;;;;5017706;28;20060;-77
2021/06/12 09:50:06;;;;;;;61.67;38.35;;;22.20;99.90;;;;;;5016116;28;20067;-76
2021/06/12 09:52:48;;;;;;;46.13;37.80;;;22.40;99.90;;;;;;5021171;28;20030;-78
2021/06/12 09:55:26;;;;;;;44.40;34.88;;;22.50;99.90;;;;;;5015721;28;20037;-75
2021/06/12 09:57:52;;;;;;;44.88;35.33;;;22.80;99.90;;;;;;5019455;28;20100;-80
2021/06/12 10:00:32;;;;;;;51.92;36.08;;;22.80;99.90;;;;;;5017393;28;20443;-75
2021/06/12 10:02:58;;;;;;;39.60;33.33;;;23.00;99.90;;;;;;5015786;28;20084;-78
2021/06/12 10:05:26;;;;;;;52.67;36.75;;;23.00;99.90;;;;;;5017933;28;20030;-75
2021/06/12 10:07:51;;;;;;;41.75;31.83;;;23.00;99.90;;;;;;5016969;28;20086;-77
2021/06/12 10:10:17;;;;;;;46.10;34.50;;;22.90;99.90;;;;;;5017390;28;20026;-77
2021/06/12 10:12:43;;;;;;;47.38;34.83;;;23.00;99.90;;;;;;5018717;28;20120;-80
2021/06/12 10:15:11;;;;;;;42.45;33.15;;;22.80;99.90;;;;;;5015106;28;20018;-79
2021/06/12 10:17:47;;;;;;;41.15;30.92;;;22.80;99.90;;;;;;5016943;28;20026;-77
2021/06/12 10:20:16;;;;;;;38.08;29.85;;;22.70;99.90;;;;;;5017832;28;20021;-77
2021/06/12 10:22:45;;;;;;;38.58;31.90;;;22.70;99.90;;;;;;5020813;28;20026;-76
2021/06/12 10:25:13;;;;;;;36.95;29.90;;;22.60;99.90;;;;;;5021919;28;20133;-78
2021/06/12 10:27:41;;;;;;;37.08;29.77;;;22.70;99.90;;;;;;5014062;28;20033;-78
2021/06/12 10:30:08;;;;;;;37.03;30.27;;;22.60;99.90;;;;;;5014905;28;20478;-78
2021/06/12 10:32:35;;;;;;;40.08;29.75;;;22.60;99.90;;;;;;5020062;28;20017;-78
2021/06/12 10:35:03;;;;;;;37.42;30.50;;;22.50;99.90;;;;;;5016271;28;20037;-78
2021/06/12 10:37:49;;;;;;;38.13;31.83;;;22.30;99.90;;;;;;5021117;28;20486;-78
2021/06/12 10:40:15;;;;;;;39.25;30.08;;;22.30;99.90;;;;;;5023735;28;20105;-77
2021/06/12 10:42:40;;;;;;;40.22;29.77;;;22.40;99.90;;;;;;5014272;28;20467;-75
2021/06/12 10:45:12;;;;;;;39.72;31.63;;;22.50;99.90;;;;;;5016667;28;20378;-73
2021/06/12 10:47:42;;;;;;;35.67;29.70;;;22.60;99.90;;;;;;5017155;28;20033;-75
2021/06/12 10:50:26;;;;;;;35.35;27.88;;;22.60;99.90;;;;;;5009698;28;20018;-77
2021/06/12 10:53:15;;;;;;;30.20;22.77;;;22.80;99.90;;;;;;5016932;28;20108;-75
2021/06/12 10:55:40;;;;;;;16.15;11.68;;;23.00;99.90;;;;;;5017764;28;20076;-75
2021/06/12 10:58:34;;;;;;;11.90;8.40;;;23.20;99.90;;;;;;5015693;28;20018;-75
2021/06/12 11:01:09;;;;;;;11.98;6.85;;;23.20;99.90;;;;;;5013675;28;20058;-72
2021/06/12 11:03:41;;;;;;;7.35;6.22;;;23.00;99.90;;;;;;5017512;28;20102;-77
2021/06/12 11:09:18;;;;;;;5.28;4.75;;;23.60;99.90;;;;;;5018006;28;20054;-78
2021/06/12 11:11:52;;;;;;;7.65;6.10;;;23.60;99.90;;;;;;5017184;28;20030;-76
2021/06/12 11:14:21;;;;;;;8.43;5.53;;;23.80;99.90;;;;;;5017425;28;20026;-77
2021/06/12 11:17:11;;;;;;;10.32;4.60;;;23.70;99.10;;;;;;5016483;28;20022;-78
2021/06/12 11:19:44;;;;;;;7.57;4.65;;;23.90;99.90;;;;;;5016787;28;20025;-73
2021/06/12 11:22:46;;;;;;;10.02;4.75;;;23.90;99.30;;;;;;5014180;28;20022;-78
2021/06/12 11:25:12;;;;;;;7.88;4.10;;;23.80;99.10;;;;;;5012217;28;20104;-76
2021/06/12 11:27:42;;;;;;;7.05;4.53;;;23.80;99.40;;;;;;5015203;28;20503;-76
2021/06/12 11:30:22;;;;;;;5.88;4.00;;;23.70;99.10;;;;;;5015949;28;20052;-76
2021/06/12 11:32:57;;;;;;;7.47;3.80;;;23.60;99.90;;;;;;5016734;28;20071;-73
2021/06/12 11:35:40;;;;;;;7.50;3.30;;;23.60;98.00;;;;;;5014085;28;20265;-78
2021/06/12 11:38:16;;;;;;;;;;;24.00;97.40;;;;;;5020312;28;20049;-75
2021/06/12 11:40:54;;;;;;;5.85;3.30;;;24.20;98.00;;;;;;5017380;28;20278;-77
2021/06/12 11:43:41;;;;;;;8.25;4.18;;;24.60;97.60;;;;;;5025822;28;20505;-75
2021/06/12 11:46:08;;;;;;;10.63;4.35;;;24.80;97.30;;;;;;5019509;28;20383;-77
2021/06/12 11:48:54;;;;;;;8.48;3.58;;;24.80;96.40;;;;;;5018723;28;20140;-75
2021/06/12 11:51:28;;;;;;;6.25;4.40;;;25.00;96.10;;;;;;5022143;28;20026;-77
2021/06/12 11:54:04;;;;;;;5.80;3.88;;;25.00;95.40;;;;;;5016397;28;20034;-72
2021/06/12 11:56:35;;;;;;;6.55;3.72;;;25.10;96.10;;;;;;5019973;28;20030;-77
2021/06/12 11:59:01;;;;;;;6.97;3.63;;;25.10;95.30;;;;;;5014937;28;20022;-77
2021/06/12 12:01:43;;;;;;;6.18;4.10;;;25.30;96.50;;;;;;5017930;28;20025;-80
2021/06/12 12:04:20;;;;;;;6.80;4.22;;;25.30;95.50;;;;;;5018721;28;20041;-78
2021/06/12 12:06:51;;;;;;;9.57;4.30;;;25.60;96.70;;;;;;5016586;28;20056;-79
2021/06/12 12:09:22;;;;;;;5.18;3.80;;;25.50;97.00;;;;;;5016056;28;20479;-74
2021/06/12 12:11:49;;;;;;;10.10;4.57;;;25.50;94.20;;;;;;5015159;28;20517;-77
2021/06/12 12:14:15;;;;;;;5.32;3.80;;;25.40;95.80;;;;;;5020725;28;20060;-80
2021/06/12 12:16:43;;;;;;;3.83;3.33;;;25.50;95.60;;;;;;5021127;28;20053;-79
2021/06/12 12:19:08;;;;;;;5.70;3.70;;;25.30;95.70;;;;;;5025952;28;20072;-78
2021/06/12 12:21:37;;;;;;;5.38;3.20;;;25.70;95.50;;;;;;5018949;28;20049;-80
2021/06/12 12:24:11;;;;;;;6.80;3.85;;;26.00;97.70;;;;;;5023686;28;20033;-78
2021/06/12 12:26:39;;;;;;;3.83;3.45;;;26.20;94.50;;;;;;5018449;28;20048;-73
2021/06/12 12:29:15;;;;;;;7.57;3.72;;;26.40;93.60;;;;;;5023458;28;20105;-72
2021/06/12 12:31:46;;;;;;;9.65;4.45;;;26.50;93.00;;;;;;5019592;28;20014;-78
2021/06/12 12:34:13;;;;;;;6.18;3.85;;;26.60;93.90;;;;;;5015932;28;20446;-79
2021/06/12 12:36:46;;;;;;;7.88;3.85;;;26.50;93.10;;;;;;5020103;28;20032;-74
2021/06/12 12:39:13;;;;;;;9.85;3.85;;;26.20;92.80;;;;;;5017679;28;20045;-78
2021/06/12 12:41:39;;;;;;;7.03;3.80;;;25.80;93.40;;;;;;5019128;28;20025;-71
2021/06/12 12:44:14;;;;;;;5.95;3.90;;;25.70;93.20;;;;;;5017545;28;20037;-78
2021/06/12 12:46:42;;;;;;;6.53;4.30;;;25.40;93.30;;;;;;5016349;28;20057;-75